sensor_id;sensor_type;location;lat;lon;timestamp;pressure;altitude;pressure_sealevel;temperature;humidity
39699;BME280;25372;50.582;12.250;2024-03-08T00:01:13;100311.59;;;-1.50;93.17
39699;BME280;25372;50.582;12.250;2024-03-08T00:11:35;100305.88;;;-2.04;93.05
39699;BME280;25372;50.582;12.250;2024-03-08T00:21:56;100303.31;;;-2.07;94.42
39699;BME280;25372;50.582;12.250;2024-03-08T00:32:18;100294.81;;;-2.29;95.77
39699;BME280;25372;50.582;12.250;2024-03-08T00:42:39;100309.50;;;-3.00;99.74
39699;BME280;25372;50.582;12.250;2024-03-08T00:53:03;100303.50;;;-2.64;97.75
39699;BME280;25372;50.582;12.250;2024-03-08T01:03:24;100290.63;;;-2.85;99.06
39699;BME280;25372;50.582;12.250;2024-03-08T01:13:46;100288.09;;;-3.08;100.00
39699;BME280;25372;50.582;12.250;2024-03-08T01:24:09;100277.75;;;-2.72;100.00
39699;BME280;25372;50.582;12.250;2024-03-08T01:34:31;100259.81;;;-2.82;100.00
39699;BME280;25372;50.582;12.250;2024-03-08T01:44:52;100258.94;;;-3.01;100.00
39699;BME280;25372;50.582;12.250;2024-03-08T01:55:15;100240.91;;;-2.68;99.37
39699;BME280;25372;50.582;12.250;2024-03-08T02:05:38;100234.13;;;-3.03;99.23
39699;BME280;25372;50.582;12.250;2024-03-08T02:16:03;100234.13;;;-3.10;100.00
39699;BME280;25372;50.582;12.250;2024-03-08T02:26:29;100217.00;;;-3.09;100.00
39699;BME280;25372;50.582;12.250;2024-03-08T02:36:49;100213.50;;;-2.83;99.01
39699;BME280;25372;50.582;12.250;2024-03-08T02:47:12;100213.53;;;-2.94;99.28
39699;BME280;25372;50.582;12.250;2024-03-08T02:57:33;100202.41;;;-2.98;100.00
39699;BME280;25372;50.582;12.250;2024-03-08T03:07:56;100187.91;;;-3.53;100.00
39699;BME280;25372;50.582;12.250;2024-03-08T03:18:18;100198.16;;;-3.83;100.00
39699;BME280;25372;50.582;12.250;2024-03-08T03:28:42;100194.75;;;-3.46;100.00
39699;BME280;25372;50.582;12.250;2024-03-08T03:39:03;100195.59;;;-3.73;100.00
39699;BME280;25372;50.582;12.250;2024-03-08T03:49:32;100183.59;;;-3.88;100.00
39699;BME280;25372;50.582;12.250;2024-03-08T03:59:52;100195.59;;;-3.81;100.00
39699;BME280;25372;50.582;12.250;2024-03-08T04:10:15;100175.06;;;-3.95;100.00
39699;BME280;25372;50.582;12.250;2024-03-08T04:20:36;100181.03;;;-3.88;100.00
39699;BME280;25372;50.582;12.250;2024-03-08T04:30:58;100176.69;;;-4.25;100.00
39699;BME280;25372;50.582;12.250;2024-03-08T04:41:20;100165.56;;;-4.27;100.00
39699;BME280;25372;50.582;12.250;2024-03-08T04:51:44;100165.63;;;-4.10;100.00
39699;BME280;25372;50.582;12.250;2024-03-08T05:02:05;100164.72;;;-4.23;100.00
39699;BME280;25372;50.582;12.250;2024-03-08T05:12:29;100159.56;;;-4.31;100.00
39699;BME280;25372;50.582;12.250;2024-03-08T05:22:51;100151.03;;;-4.36;100.00
39699;BME280;25372;50.582;12.250;2024-03-08T05:33:13;100150.16;;;-4.35;100.00
39699;BME280;25372;50.582;12.250;2024-03-08T05:43:34;100147.66;;;-4.07;100.00
39699;BME280;25372;50.582;12.250;2024-03-08T05:53:57;100137.38;;;-4.26;100.00
39699;BME280;25372;50.582;12.250;2024-03-08T06:04:18;100143.38;;;-4.03;100.00
39699;BME280;25372;50.582;12.250;2024-03-08T06:14:41;100151.09;;;-3.77;100.00
39699;BME280;25372;50.582;12.250;2024-03-08T06:25:03;100146.81;;;-3.66;100.00
39699;BME280;25372;50.582;12.250;2024-03-08T06:35:26;100144.25;;;-3.42;100.00
39699;BME280;25372;50.582;12.250;2024-03-08T06:45:47;100133.88;;;-3.03;100.00
39699;BME280;25372;50.582;12.250;2024-03-08T06:56:10;100136.34;;;-2.71;100.00
39699;BME280;25372;50.582;12.250;2024-03-08T07:06:31;100124.00;;;-2.09;100.00
39699;BME280;25372;50.582;12.250;2024-03-08T07:16:55;100118.69;;;-1.89;100.00
39699;BME280;25372;50.582;12.250;2024-03-08T07:27:16;100120.81;;;-1.39;97.41
39699;BME280;25372;50.582;12.250;2024-03-08T07:37:39;100110.22;;;-1.10;93.80
39699;BME280;25372;50.582;12.250;2024-03-08T07:48:00;100109.84;;;-0.77;93.17
39699;BME280;25372;50.582;12.250;2024-03-08T07:58:24;100108.50;;;-0.42;91.30
39699;BME280;25372;50.582;12.250;2024-03-08T08:08:45;100102.00;;;-0.08;89.61
39699;BME280;25372;50.582;12.250;2024-03-08T08:19:07;100093.78;;;0.21;85.87
39699;BME280;25372;50.582;12.250;2024-03-08T08:29:29;100076.56;;;0.69;86.17
39699;BME280;25372;50.582;12.250;2024-03-08T08:39:52;100078.19;;;1.19;81.31
39699;BME280;25372;50.582;12.250;2024-03-08T08:50:13;100060.22;;;1.52;80.74
39699;BME280;25372;50.582;12.250;2024-03-08T09:00:35;100054.94;;;1.94;79.40
39699;BME280;25372;50.582;12.250;2024-03-08T09:10:56;100040.53;;;2.17;77.14
39699;BME280;25372;50.582;12.250;2024-03-08T09:21:21;100022.75;;;2.68;75.58
39699;BME280;25372;50.582;12.250;2024-03-08T09:31:42;100018.03;;;3.13;71.91
39699;BME280;25372;50.582;12.250;2024-03-08T09:42:05;100007.63;;;3.70;69.88
39699;BME280;25372;50.582;12.250;2024-03-08T09:52:26;100007.31;;;3.79;69.70
39699;BME280;25372;50.582;12.250;2024-03-08T10:02:51;99986.78;;;4.24;68.36
39699;BME280;25372;50.582;12.250;2024-03-08T10:13:13;99977.75;;;4.34;67.55
39699;BME280;25372;50.582;12.250;2024-03-08T10:23:37;99964.78;;;4.82;65.79
39699;BME280;25372;50.582;12.250;2024-03-08T10:33:59;99949.78;;;5.11;64.33
39699;BME280;25372;50.582;12.250;2024-03-08T10:44:32;99949.69;;;5.57;62.24
39699;BME280;25372;50.582;12.250;2024-03-08T10:55:01;99935.63;;;5.61;61.83
39699;BME280;25372;50.582;12.250;2024-03-08T11:05:36;99919.47;;;5.94;61.79
39699;BME280;25372;50.582;12.250;2024-03-08T11:15:59;99903.50;;;6.23;60.20
39699;BME280;25372;50.582;12.250;2024-03-08T11:26:24;99894.00;;;6.41;60.37
39699;BME280;25372;50.582;12.250;2024-03-08T11:36:48;99889.72;;;6.59;61.09
39699;BME280;25372;50.582;12.250;2024-03-08T11:47:10;99854.91;;;7.14;58.63
39699;BME280;25372;50.582;12.250;2024-03-08T11:57:32;99848.91;;;7.12;57.10
39699;BME280;25372;50.582;12.250;2024-03-08T12:07:57;99829.63;;;7.33;57.60
39699;BME280;25372;50.582;12.250;2024-03-08T12:18:18;99823.41;;;7.53;54.25
39699;BME280;25372;50.582;12.250;2024-03-08T12:28:41;99811.38;;;7.66;56.37
39699;BME280;25372;50.582;12.250;2024-03-08T12:39:05;99809.50;;;7.86;54.60
39699;BME280;25372;50.582;12.250;2024-03-08T12:49:33;99782.75;;;7.81;53.21
39699;BME280;25372;50.582;12.250;2024-03-08T12:59:54;99765.72;;;8.06;54.53
39699;BME280;25372;50.582;12.250;2024-03-08T13:10:17;99747.41;;;8.70;53.41
39699;BME280;25372;50.582;12.250;2024-03-08T13:20:40;99740.34;;;8.56;53.47
39699;BME280;25372;50.582;12.250;2024-03-08T13:31:05;99722.16;;;8.69;54.01
39699;BME280;25372;50.582;12.250;2024-03-08T13:41:29;99717.34;;;8.92;54.65
39699;BME280;25372;50.582;12.250;2024-03-08T13:51:52;99702.22;;;8.97;52.93
39699;BME280;25372;50.582;12.250;2024-03-08T14:02:14;99679.28;;;8.86;53.13
39699;BME280;25372;50.582;12.250;2024-03-08T14:12:38;99685.00;;;8.93;53.88
39699;BME280;25372;50.582;12.250;2024-03-08T14:22:59;99669.69;;;9.16;54.75
39699;BME280;25372;50.582;12.250;2024-03-08T14:33:22;99665.66;;;9.10;53.47
39699;BME280;25372;50.582;12.250;2024-03-08T14:43:45;99650.97;;;9.07;55.91
39699;BME280;25372;50.582;12.250;2024-03-08T14:54:08;99637.66;;;9.40;52.13
39699;BME280;25372;50.582;12.250;2024-03-08T15:04:30;99636.97;;;9.79;51.93
39699;BME280;25372;50.582;12.250;2024-03-08T15:14:56;99623.44;;;10.13;52.04
39699;BME280;25372;50.582;12.250;2024-03-08T15:25:18;99619.03;;;9.59;54.29
39699;BME280;25372;50.582;12.250;2024-03-08T15:35:47;99603.13;;;9.89;52.90
39699;BME280;25372;50.582;12.250;2024-03-08T15:46:10;99609.84;;;8.64;56.41
39699;BME280;25372;50.582;12.250;2024-03-08T15:56:33;99599.78;;;7.95;59.13
39699;BME280;25372;50.582;12.250;2024-03-08T16:06:54;99587.34;;;7.36;62.79
39699;BME280;25372;50.582;12.250;2024-03-08T16:17:16;99588.56;;;6.97;64.00
39699;BME280;25372;50.582;12.250;2024-03-08T16:27:38;99585.03;;;6.47;66.52
39699;BME280;25372;50.582;12.250;2024-03-08T16:38:01;99582.56;;;6.08;68.64
39699;BME280;25372;50.582;12.250;2024-03-08T16:48:22;99584.88;;;5.78;68.95
39699;BME280;25372;50.582;12.250;2024-03-08T16:58:45;99591.66;;;5.43;71.03
39699;BME280;25372;50.582;12.250;2024-03-08T17:09:06;99593.41;;;5.04;72.51
39699;BME280;25372;50.582;12.250;2024-03-08T17:19:33;99591.00;;;4.60;74.68
39699;BME280;25372;50.582;12.250;2024-03-08T17:29:54;99593.59;;;4.39;75.01
39699;BME280;25372;50.582;12.250;2024-03-08T17:40:17;99582.59;;;4.12;77.18
39699;BME280;25372;50.582;12.250;2024-03-08T17:50:42;99578.75;;;3.77;78.30
39699;BME280;25372;50.582;12.250;2024-03-08T18:01:04;99581.53;;;3.73;78.45
39699;BME280;25372;50.582;12.250;2024-03-08T18:11:29;99573.97;;;2.97;81.91
39699;BME280;25372;50.582;12.250;2024-03-08T18:21:52;99563.00;;;2.64;84.79
39699;BME280;25372;50.582;12.250;2024-03-08T18:32:13;99555.19;;;2.90;84.26
39699;BME280;25372;50.582;12.250;2024-03-08T18:42:36;99563.66;;;3.19;82.23
39699;BME280;25372;50.582;12.250;2024-03-08T18:52:58;99551.47;;;2.73;84.40
39699;BME280;25372;50.582;12.250;2024-03-08T19:03:21;99544.97;;;2.36;86.63
39699;BME280;25372;50.582;12.250;2024-03-08T19:13:43;99528.19;;;1.95;89.40
39699;BME280;25372;50.582;12.250;2024-03-08T19:24:06;99533.63;;;1.59;90.55
39699;BME280;25372;50.582;12.250;2024-03-08T19:34:28;99526.88;;;2.84;88.58
39699;BME280;25372;50.582;12.250;2024-03-08T19:44:50;99523.69;;;3.23;85.41
39699;BME280;25372;50.582;12.250;2024-03-08T19:55:12;99529.31;;;3.34;84.89
39699;BME280;25372;50.582;12.250;2024-03-08T20:05:35;99523.22;;;3.13;84.82
39699;BME280;25372;50.582;12.250;2024-03-08T20:15:57;99519.66;;;3.38;81.99
39699;BME280;25372;50.582;12.250;2024-03-08T20:26:20;99522.63;;;3.05;81.78
39699;BME280;25372;50.582;12.250;2024-03-08T20:36:42;99520.22;;;2.76;82.48
39699;BME280;25372;50.582;12.250;2024-03-08T20:47:05;99500.41;;;2.98;80.17
39699;BME280;25372;50.582;12.250;2024-03-08T20:57:26;99501.34;;;2.47;82.69
39699;BME280;25372;50.582;12.250;2024-03-08T21:07:48;99496.41;;;2.16;84.83
39699;BME280;25372;50.582;12.250;2024-03-08T21:18:10;99495.34;;;2.47;83.05
39699;BME280;25372;50.582;12.250;2024-03-08T21:28:34;99487.22;;;2.32;83.72
39699;BME280;25372;50.582;12.250;2024-03-08T21:38:55;99475.63;;;2.67;81.72
39699;BME280;25372;50.582;12.250;2024-03-08T21:49:17;99459.41;;;2.36;82.62
39699;BME280;25372;50.582;12.250;2024-03-08T21:59:38;99451.41;;;2.44;82.16
39699;BME280;25372;50.582;12.250;2024-03-08T22:10:03;99429.25;;;2.09;83.83
39699;BME280;25372;50.582;12.250;2024-03-08T22:20:24;99424.66;;;2.42;80.84
39699;BME280;25372;50.582;12.250;2024-03-08T22:30:52;99416.69;;;1.99;83.11
39699;BME280;25372;50.582;12.250;2024-03-08T22:41:14;99401.84;;;1.78;83.80
39699;BME280;25372;50.582;12.250;2024-03-08T22:51:36;99388.16;;;2.00;83.10
39699;BME280;25372;50.582;12.250;2024-03-08T23:01:57;99381.19;;;2.26;81.06
39699;BME280;25372;50.582;12.250;2024-03-08T23:12:19;99362.25;;;2.24;81.81
39699;BME280;25372;50.582;12.250;2024-03-08T23:22:41;99356.91;;;2.29;81.47
39699;BME280;25372;50.582;12.250;2024-03-08T23:33:08;99357.31;;;1.92;83.52
39699;BME280;25372;50.582;12.250;2024-03-08T23:43:31;99349.97;;;1.54;85.64
39699;BME280;25372;50.582;12.250;2024-03-08T23:53:56;99336.78;;;1.37;87.37
